Time;durP1;ratioP1;P1;durP2;ratioP2;P2;SDS_P1;SDS_P2;PMS_P1;PMS_P2;Temp;Humidity;BMP_temperature;BMP_pressure;BME280_temperature;BME280_humidity;BME280_pressure;Samples;Min_cycle;Max_cycle;Signal;HPM_P1;HPM_P2
2022/11/05 00:16:44;;;;;;;17.55;7.60;;;10.50;99.90;;;;;;5020872;28;20052;-89
2022/11/05 00:19:10;;;;;;;14.93;7.75;;;;;;;;;;5003005;28;20458;-86
2022/11/05 00:27:07;;;;;;;14.00;7.93;;;10.40;99.90;;;;;;5021796;28;20032;-89
2022/11/05 00:29:33;;;;;;;12.82;7.35;;;;;;;;;;5022742;28;20045;-89
2022/11/05 00:32:02;;;;;;;13.10;7.68;;;;;;;;;;5023433;28;20606;-87
2022/11/05 00:34:32;;;;;;;11.82;7.85;;;;;;;;;;5015556;28;20088;-89
2022/11/05 00:37:01;;;;;;;14.88;8.70;;;;;;;;;;4998697;28;20053;-88
2022/11/05 00:39:27;;;;;;;16.23;8.15;;;;;;;;;;5006935;28;20037;-86
2022/11/05 00:45:00;;;;;;;14.55;7.95;;;;;;;;;;4988834;28;20057;-87
2022/11/05 00:50:11;;;;;;;15.25;8.50;;;;;;;;;;5028758;28;20392;-85
2022/11/05 00:52:56;;;;;;;14.23;8.32;;;;;;;;;;5015579;28;20228;-87
2022/11/05 00:55:23;;;;;;;14.38;7.38;;;;;;;;;;5024678;28;20025;-88
2022/11/05 00:57:49;;;;;;;19.27;10.00;;;;;;;;;;5015435;28;20030;-88
2022/11/05 01:00:16;;;;;;;12.27;7.90;;;;;;;;;;5030135;28;20076;-89
2022/11/05 01:02:42;;;;;;;10.50;6.53;;;;;;;;;;5023072;28;20042;-89
2022/11/05 01:05:09;;;;;;;13.95;6.88;;;;;;;;;;5020121;28;20025;-88
2022/11/05 01:07:35;;;;;;;15.90;7.32;;;;;;;;;;5021025;28;20430;-89
2022/11/05 01:10:01;;;;;;;10.25;5.82;;;;;;;;;;5016170;28;20112;-88
2022/11/05 01:12:27;;;;;;;10.35;6.05;;;;;;;;;;5024159;28;20065;-88
2022/11/05 01:14:53;;;;;;;12.02;6.18;;;;;;;;;;5019654;28;20033;-87
2022/11/05 01:17:19;;;;;;;7.97;5.40;;;;;;;;;;5004670;28;20101;-87
2022/11/05 01:19:46;;;;;;;13.90;5.78;;;;;;;;;;5007283;28;20034;-86
2022/11/05 01:22:12;;;;;;;9.65;5.90;;;;;;;;;;5006955;28;20069;-87
2022/11/05 01:24:38;;;;;;;8.80;5.65;;;;;;;;;;5010241;28;20261;-85
2022/11/05 01:27:04;;;;;;;12.55;6.30;;;;;;;;;;5008176;28;20042;-88
2022/11/05 01:29:30;;;;;;;9.50;6.38;;;;;;;;;;5016020;28;20097;-88
2022/11/05 01:31:56;;;;;;;14.68;6.72;;;;;;;;;;5007846;28;20928;-86
2022/11/05 01:34:22;;;;;;;10.77;6.93;;;;;;;;;;5027499;28;20037;-87
2022/11/05 01:36:48;;;;;;;10.23;7.00;;;;;;;;;;5014447;28;20047;-87
2022/11/05 01:39:14;;;;;;;10.60;6.78;;;;;;;;;;5009896;28;20032;-84
2022/11/05 01:41:40;;;;;;;10.70;5.78;;;;;;;;;;5008996;28;20057;-85
2022/11/05 01:44:26;;;;;;;13.85;6.80;;;;;;;;;;5023142;28;20053;-88
2022/11/05 01:46:52;;;;;;;12.45;6.80;;;;;;;;;;5001115;28;20038;-87
2022/11/05 01:49:29;;;;;;;11.38;6.80;;;;;;;;;;5005864;28;20030;-88
2022/11/05 01:51:56;;;;;;;17.52;8.80;;;;;;;;;;5019258;28;20030;-90
2022/11/05 01:54:24;;;;;;;10.45;6.55;;;;;;;;;;5007459;28;20021;-88
2022/11/05 01:57:09;;;;;;;14.73;8.43;;;;;;;;;;5007481;28;20034;-88
2022/11/05 01:59:41;;;;;;;11.95;7.32;;;;;;;;;;5022447;28;20041;-88
2022/11/05 02:02:08;;;;;;;13.75;6.90;;;;;;;;;;5026939;28;20026;-89
2022/11/05 02:04:40;;;;;;;12.88;7.07;;;9.80;99.90;;;;;;5026332;28;20117;-89
2022/11/05 02:07:07;;;;;;;13.70;6.68;;;;;;;;;;5026596;28;20026;-89
2022/11/05 02:09:55;;;;;;;16.60;7.13;;;;;;;;;;5024614;28;20048;-88
2022/11/05 02:12:22;;;;;;;13.20;6.53;;;;;;;;;;5019783;28;20093;-88
2022/11/05 02:14:48;;;;;;;14.85;7.03;;;;;;;;;;5020302;28;20408;-88
2022/11/05 02:17:29;;;;;;;12.57;6.13;;;;;;;;;;5020135;28;20031;-87
2022/11/05 02:20:10;;;;;;;12.40;6.65;;;;;;;;;;5024331;28;20081;-88
2022/11/05 02:22:45;;;;;;;11.75;5.68;;;;;;;;;;5024275;28;20048;-88
2022/11/05 02:25:19;;;;;;;10.52;5.75;;;;;;;;;;5019783;28;20022;-89
2022/11/05 02:28:03;;;;;;;9.85;5.60;;;;;;;;;;5008299;28;20053;-87
2022/11/05 02:30:41;;;;;;;11.13;5.93;;;9.60;99.90;;;;;;5002831;28;20109;-84
2022/11/05 02:33:38;;;;;;;10.80;6.40;;;9.70;99.90;;;;;;5006522;28;20026;-88
2022/11/05 02:36:22;;;;;;;12.32;6.13;;;9.60;99.90;;;;;;5013481;28;20347;-89
2022/11/05 02:38:48;;;;;;;13.98;7.75;;;;;;;;;;5021031;28;20042;-87
2022/11/05 02:41:33;;;;;;;17.90;9.05;;;9.60;99.90;;;;;;5022310;28;20024;-85
2022/11/05 02:44:02;;;;;;;13.68;6.53;;;;;;;;;;5019237;28;20094;-89
2022/11/05 02:46:43;;;;;;;11.55;6.38;;;9.60;99.90;;;;;;5004918;28;20072;-88
2022/11/05 02:49:41;;;;;;;14.23;7.00;;;9.60;99.90;;;;;;5021727;28;20026;-87
2022/11/05 02:52:18;;;;;;;11.40;6.40;;;9.60;99.90;;;;;;4998237;28;20022;-87
2022/11/05 02:54:50;;;;;;;12.10;6.53;;;9.50;99.90;;;;;;5015712;28;20030;-88
2022/11/05 02:57:20;;;;;;;15.80;6.88;;;9.50;99.90;;;;;;4999743;28;20044;-86
2022/11/05 02:59:46;;;;;;;14.38;7.30;;;;;;;;;;5021144;28;20026;-89
2022/11/05 03:02:12;;;;;;;11.63;6.10;;;;;;;;;;5013517;28;20030;-89
2022/11/05 03:04:38;;;;;;;10.68;5.90;;;;;;;;;;5024114;28;20034;-88
2022/11/05 03:07:07;;;;;;;11.07;6.00;;;;;;;;;;5029098;28;20021;-87
2022/11/05 03:09:55;;;;;;;12.38;6.30;;;9.40;99.90;;;;;;5006637;28;20037;-86
2022/11/05 03:12:21;;;;;;;8.57;5.38;;;;;;;;;;5023024;28;20026;-86
2022/11/05 03:14:47;;;;;;;11.57;6.32;;;;;;;;;;5023544;28;20030;-87
2022/11/05 03:17:23;;;;;;;10.55;5.85;;;;;;;;;;5007832;28;20041;-87
2022/11/05 03:19:58;;;;;;;13.52;6.30;;;;;;;;;;5018356;28;20168;-88
2022/11/05 03:22:27;;;;;;;8.55;5.05;;;;;;;;;;5020848;28;20026;-86
2022/11/05 03:24:54;;;;;;;10.25;6.07;;;;;;;;;;5001888;28;20049;-87
2022/11/05 03:27:25;;;;;;;13.32;5.50;;;;;;;;;;5019653;28;20093;-87
2022/11/05 03:29:58;;;;;;;10.68;5.57;;;;;;;;;;5022237;28;20041;-88
2022/11/05 03:32:25;;;;;;;10.60;5.53;;;;;;;;;;5003098;28;20037;-87
2022/11/05 03:34:56;;;;;;;11.45;5.53;;;;;;;;;;4999719;28;20069;-87
2022/11/05 03:37:22;;;;;;;9.90;5.43;;;;;;;;;;5016845;28;20084;-85
2022/11/05 03:39:50;;;;;;;9.20;5.18;;;;;;;;;;4999171;28;20033;-88
2022/11/05 03:42:19;;;;;;;10.13;5.53;;;9.40;99.90;;;;;;5014028;28;20480;-86
2022/11/05 03:44:50;;;;;;;10.52;5.07;;;9.40;99.90;;;;;;4999315;28;20040;-86
2022/11/05 03:47:19;;;;;;;10.30;5.70;;;;;;;;;;5018641;28;20025;-86
2022/11/05 03:49:51;;;;;;;9.07;5.45;;;;;;;;;;5012238;28;20462;-88
2022/11/05 03:52:19;;;;;;;10.35;5.70;;;;;;;;;;5028226;28;20038;-87
2022/11/05 03:54:45;;;;;;;10.65;5.93;;;;;;;;;;5008226;28;20026;-87
2022/11/05 03:57:14;;;;;;;11.75;5.70;;;;;;;;;;5010730;28;20038;-88
2022/11/05 03:59:42;;;;;;;12.15;5.57;;;;;;;;;;5006122;28;20121;-88
2022/11/05 04:02:09;;;;;;;12.73;6.85;;;;;;;;;;5007220;28;20030;-88
2022/11/05 04:04:36;;;;;;;9.10;6.03;;;;;;;;;;5003851;28;20026;-90
2022/11/05 04:15:15;;;;;;;11.80;6.85;;;9.20;99.90;;;;;;5016161;28;20037;-91
2022/11/05 04:17:41;;;;;;;14.60;7.38;;;;;;;;;;5005868;28;20053;-86
2022/11/05 04:25:48;;;;;;;15.77;8.07;;;;;;;;;;5013793;28;20045;-87
2022/11/05 04:28:13;;;;;;;15.88;7.82;;;9.10;99.90;;;;;;5016738;28;20041;-88
2022/11/05 04:30:40;;;;;;;16.35;7.95;;;;;;;;;;5019370;28;20022;-88
2022/11/05 04:33:09;;;;;;;17.08;9.68;;;9.10;99.90;;;;;;5015118;28;20037;-90
2022/11/05 04:35:35;;;;;;;14.38;9.02;;;;;;;;;;4978391;28;20045;-89
2022/11/05 04:38:06;;;;;;;14.93;8.13;;;9.10;99.90;;;;;;5021611;28;20034;-89
2022/11/05 04:40:32;;;;;;;16.42;8.85;;;;;;;;;;5000010;28;20032;-84
2022/11/05 04:42:58;;;;;;;17.35;8.68;;;;;;;;;;5029436;28;20049;-89
2022/11/05 04:45:26;;;;;;;17.95;9.57;;;9.10;99.90;;;;;;5014103;28;20033;-89
2022/11/05 04:47:52;;;;;;;19.00;9.73;;;;;;;;;;5025499;28;20208;-86
2022/11/05 04:50:18;;;;;;;19.48;9.93;;;;;;;;;;5004324;28;20112;-87
2022/11/05 04:52:44;;;;;;;20.73;9.98;;;;;;;;;;5002857;28;20022;-87
2022/11/05 04:55:11;;;;;;;20.38;11.70;;;;;;;;;;4996810;28;20044;-85
2022/11/05 04:57:37;;;;;;;23.83;11.27;;;8.90;99.90;;;;;;5017318;28;20495;-86
2022/11/05 05:00:05;;;;;;;17.35;9.80;;;8.80;99.90;;;;;;5019638;28;20018;-87
2022/11/05 05:02:31;;;;;;;16.55;9.80;;;;;;;;;;5013873;28;20030;-86
2022/11/05 05:04:56;;;;;;;17.98;10.43;;;8.80;99.90;;;;;;5021129;28;20025;-86
2022/11/05 05:07:22;;;;;;;21.60;10.48;;;;;;;;;;5004164;28;20037;-88
2022/11/05 05:09:48;;;;;;;23.92;10.82;;;;;;;;;;5020831;28;20026;-87
2022/11/05 05:12:14;;;;;;;19.98;10.88;;;;;;;;;;5006098;28;20029;-87
2022/11/05 05:14:40;;;;;;;22.15;11.27;;;;;;;;;;5021745;28;20041;-87
2022/11/05 05:17:06;;;;;;;21.35;11.20;;;;;;;;;;5024647;28;20052;-84
2022/11/05 05:21:37;;;;;;;17.52;10.00;;;;;;;;;;5009765;28;20086;-86
2022/11/05 05:22:18;;;;;;;33.75;11.48;;;;;;;;;;5032210;28;20061;-85
2022/11/05 05:24:44;;;;;;;19.17;10.70;;;;;;;;;;5027665;28;20030;-86
2022/11/05 05:27:10;;;;;;;21.65;10.25;;;8.50;99.90;;;;;;5011636;28;20045;-85
2022/11/05 05:29:36;;;;;;;19.27;9.52;;;;;;;;;;5024264;28;20090;-82
2022/11/05 05:32:02;;;;;;;24.20;10.10;;;;;;;;;;5009018;28;20030;-87
2022/11/05 05:34:28;;;;;;;23.50;10.80;;;;;;;;;;5009989;28;20033;-86
2022/11/05 05:36:54;;;;;;;21.02;10.15;;;;;;;;;;5025681;28;20053;-86
2022/11/05 05:39:19;;;;;;;20.50;10.85;;;8.40;99.90;;;;;;5013186;28;20090;-86
2022/11/05 05:41:45;;;;;;;19.08;9.45;;;;;;;;;;5036184;28;20554;-87
2022/11/05 05:44:11;;;;;;;17.40;9.38;;;;;;;;;;5025915;28;20034;-87
2022/11/05 05:46:37;;;;;;;18.65;9.25;;;;;;;;;;4999079;28;20035;-85
2022/11/05 05:49:03;;;;;;;19.05;9.50;;;8.40;99.90;;;;;;5019872;28;20398;-86
2022/11/05 05:51:29;;;;;;;17.98;9.20;;;;;;;;;;5016411;28;20057;-87
2022/11/05 05:53:55;;;;;;;15.98;9.05;;;;;;;;;;5020515;28;20052;-87
2022/11/05 05:56:21;;;;;;;18.92;8.95;;;;;;;;;;5000359;28;20031;-86
2022/11/05 05:58:47;;;;;;;19.05;8.68;;;;;;;;;;5007483;28;20034;-87
2022/11/05 06:01:15;;;;;;;18.30;8.70;;;8.20;99.90;;;;;;5020137;28;20048;-87
2022/11/05 06:03:41;;;;;;;18.55;9.05;;;;;;;;;;5020754;28;20026;-87
2022/11/05 06:06:11;;;;;;;15.73;8.85;;;8.20;99.90;;;;;;5019533;28;20041;-87
2022/11/05 06:08:37;;;;;;;15.70;8.35;;;;;;;;;;5007529;28;20030;-87
2022/11/05 06:11:04;;;;;;;15.68;8.07;;;8.10;99.90;;;;;;5007029;28;20073;-85
2022/11/05 06:13:30;;;;;;;15.20;8.65;;;;;;;;;;5022510;28;20033;-87
2022/11/05 06:16:14;;;;;;;16.15;8.68;;;;;;;;;;5021156;28;20034;-87
2022/11/05 06:18:40;;;;;;;15.70;8.50;;;;;;;;;;5022654;28;20034;-86
2022/11/05 06:21:08;;;;;;;20.60;9.13;;;8.00;99.90;;;;;;5016960;28;20052;-88
2022/11/05 06:23:36;;;;;;;16.27;8.93;;;7.90;99.90;;;;;;5021274;28;20022;-88
2022/11/05 06:26:04;;;;;;;15.63;8.27;;;7.90;99.90;;;;;;5000432;28;20045;-86
2022/11/05 06:28:30;;;;;;;14.35;8.63;;;7.90;99.90;;;;;;5024470;28;20030;-90
2022/11/05 06:30:56;;;;;;;14.05;8.48;;;7.70;99.90;;;;;;5007419;28;20511;-87
2022/11/05 06:33:22;;;;;;;15.05;7.93;;;;;;;;;;4991924;28;20026;-87
2022/11/05 06:35:48;;;;;;;15.23;8.27;;;;;;;;;;5008586;28;20108;-87
2022/11/05 06:38:14;;;;;;;21.02;9.70;;;;;;;;;;5008061;28;20038;-88
2022/11/05 06:40:41;;;;;;;16.45;8.55;;;;;;;;;;5006599;28;20022;-88
2022/11/05 06:43:07;;;;;;;17.83;8.80;;;;;;;;;;5004047;28;20022;-86
2022/11/05 06:45:33;;;;;;;16.05;8.15;;;;;;;;;;5000522;28;20572;-87
2022/11/05 06:47:59;;;;;;;15.55;8.65;;;;;;;;;;5006793;28;20030;-88
2022/11/05 06:50:26;;;;;;;15.75;8.77;;;7.70;99.90;;;;;;5003416;28;20046;-87
2022/11/05 06:52:54;;;;;;;19.83;9.07;;;;;;;;;;5022669;28;20044;-88
2022/11/05 06:55:20;;;;;;;14.55;8.20;;;;;;;;;;4997817;28;20030;-86
2022/11/05 06:57:46;;;;;;;14.20;8.50;;;;;;;;;;5006714;28;20096;-88
2022/11/05 07:00:12;;;;;;;16.50;8.40;;;7.70;99.90;;;;;;4998974;28;20010;-86
2022/11/05 07:02:38;;;;;;;18.17;9.30;;;;;;;;;;5018802;28;20121;-88
2022/11/05 07:05:06;;;;;;;19.27;8.65;;;;;;;;;;5007122;28;20018;-85
2022/11/05 07:07:32;;;;;;;15.85;8.75;;;;;;;;;;4991390;28;20040;-87
2022/11/05 07:09:58;;;;;;;21.70;10.20;;;;;;;;;;5001795;28;20033;-88
2022/11/05 07:12:24;;;;;;;16.00;8.95;;;;;;;;;;5022335;28;20034;-88
2022/11/05 07:14:50;;;;;;;16.75;9.02;;;;;;;;;;5026737;28;20381;-86
2022/11/05 07:17:19;;;;;;;16.30;8.70;;;;;;;;;;5011780;28;20049;-88
2022/11/05 07:19:45;;;;;;;17.17;8.77;;;;;;;;;;5010239;28;20045;-87
2022/11/05 07:22:11;;;;;;;20.95;10.43;;;;;;;;;;5010566;28;20022;-85
2022/11/05 07:24:37;;;;;;;18.95;10.23;;;;;;;;;;5006435;28;20041;-88
2022/11/05 07:27:02;;;;;;;17.85;9.82;;;7.70;99.90;;;;;;5026388;28;20049;-87
2022/11/05 07:29:28;;;;;;;25.70;9.70;;;;;;;;;;5005731;28;20097;-87
2022/11/05 07:31:54;;;;;;;21.08;10.15;;;;;;;;;;5024801;28;20034;-88
2022/11/05 07:34:20;;;;;;;17.95;9.38;;;;;;;;;;5019148;28;20294;-87
2022/11/05 07:36:46;;;;;;;17.75;9.60;;;;;;;;;;5005179;28;20007;-87
2022/11/05 07:39:12;;;;;;;20.45;10.02;;;;;;;;;;5022196;28;20033;-88
2022/11/05 07:41:38;;;;;;;18.02;10.43;;;;;;;;;;5002655;28;20590;-91
2022/11/05 07:44:04;;;;;;;21.48;9.93;;;;;;;;;;5021906;28;20030;-87
2022/11/05 07:46:30;;;;;;;18.35;9.75;;;;;;;;;;5026189;28;20048;-89
2022/11/05 07:48:56;;;;;;;17.45;10.23;;;;;;;;;;5023022;28;20559;-85
2022/11/05 07:51:22;;;;;;;19.05;9.80;;;;;;;;;;5022492;28;20089;-90
2022/11/05 07:53:48;;;;;;;18.88;9.15;;;;;;;;;;5019532;28;20041;-89
2022/11/05 07:56:15;;;;;;;15.02;8.63;;;8.00;99.90;;;;;;5019427;28;20046;-87
2022/11/05 07:58:41;;;;;;;15.38;8.43;;;;;;;;;;5022189;28;20040;-89
2022/11/05 08:01:07;;;;;;;15.57;9.20;;;;;;;;;;5033011;28;20014;-85
2022/11/05 08:03:33;;;;;;;16.48;8.55;;;;;;;;;;5027390;28;20033;-82
2022/11/05 08:05:59;;;;;;;17.33;9.35;;;;;;;;;;5009765;28;20034;-89
2022/11/05 08:08:25;;;;;;;15.82;8.82;;;;;;;;;;5029317;28;20093;-89
2022/11/05 08:10:51;;;;;;;18.15;8.30;;;;;;;;;;5013952;28;20026;-89
2022/11/05 08:13:18;;;;;;;13.93;7.18;;;;;;;;;;5016191;28;20029;-85
2022/11/05 08:15:44;;;;;;;14.93;8.10;;;;;;;;;;5034788;28;20022;-84
2022/11/05 08:18:12;;;;;;;15.20;7.85;;;8.40;99.90;;;;;;5030580;28;20038;-87
2022/11/05 08:20:39;;;;;;;13.07;8.18;;;8.50;99.90;;;;;;5025462;28;20022;-88
2022/11/05 08:23:05;;;;;;;14.50;8.13;;;;;;;;;;5034082;28;20032;-87
2022/11/05 08:25:31;;;;;;;15.73;8.07;;;;;;;;;;5030869;28;20037;-86
2022/11/05 08:28:03;;;;;;;15.43;8.43;;;8.90;99.90;;;;;;5022026;28;20017;-85
2022/11/05 08:30:29;;;;;;;15.10;8.43;;;;;;;;;;5027369;28;20032;-89
2022/11/05 08:32:57;;;;;;;16.38;8.60;;;9.10;99.90;;;;;;5031850;28;20057;-89
2022/11/05 08:35:23;;;;;;;15.68;8.35;;;;;;;;;;5037868;28;20025;-91
2022/11/05 08:37:49;;;;;;;16.05;7.63;;;;;;;;;;5027641;28;20037;-88
2022/11/05 08:40:15;;;;;;;13.38;9.02;;;;;;;;;;5021887;28;20014;-88
2022/11/05 08:42:41;;;;;;;13.65;8.38;;;;;;;;;;5042879;28;20014;-89
2022/11/05 08:45:08;;;;;;;15.27;8.18;;;;;;;;;;5037371;28;20009;-87
2022/11/05 08:47:34;;;;;;;17.63;7.88;;;;;;;;;;5019111;28;20094;-86
2022/11/05 08:50:00;;;;;;;14.25;7.50;;;;;;;;;;5015040;28;20064;-87
2022/11/05 08:52:25;;;;;;;15.80;7.55;;;;;;;;;;5034841;28;20038;-88
2022/11/05 08:54:51;;;;;;;15.68;8.35;;;;;;;;;;5032707;28;20044;-89
2022/11/05 08:57:18;;;;;;;14.00;8.13;;;;;;;;;;5014865;28;20068;-87
2022/11/05 08:59:44;;;;;;;16.90;8.55;;;;;;;;;;5017802;28;20014;-90
2022/11/05 09:02:10;;;;;;;16.20;8.07;;;;;;;;;;5018328;28;20017;-89
2022/11/05 09:04:36;;;;;;;16.83;8.70;;;;;;;;;;5037953;28;20048;-89
2022/11/05 09:07:02;;;;;;;16.55;9.40;;;;;;;;;;5022406;28;20099;-88
2022/11/05 09:09:28;;;;;;;17.67;8.30;;;;;;;;;;5036576;28;20026;-89
2022/11/05 09:11:54;;;;;;;16.20;9.43;;;;;;;;;;5014714;28;20010;-89
2022/11/05 09:14:20;;;;;;;16.33;9.13;;;;;;;;;;5017410;28;20072;-88
2022/11/05 09:16:47;;;;;;;12.57;8.18;;;;;;;;;;5033035;28;20014;-89
2022/11/05 09:19:13;;;;;;;17.05;8.93;;;;;;;;;;5031441;28;20092;-86
2022/11/05 09:21:39;;;;;;;20.10;9.23;;;;;;;;;;5013119;28;20050;-90
2022/11/05 09:24:05;;;;;;;18.63;9.60;;;;;;;;;;5031834;28;20029;-89
2022/11/05 09:26:31;;;;;;;18.48;9.57;;;;;;;;;;5011244;28;20040;-89
2022/11/05 09:28:57;;;;;;;18.38;10.50;;;;;;;;;;5031478;28;20025;-88
2022/11/05 09:31:23;;;;;;;17.77;9.90;;;;;;;;;;5030110;28;20036;-89
2022/11/05 09:33:49;;;;;;;14.63;9.32;;;;;;;;;;5016423;28;20038;-87
2022/11/05 09:36:15;;;;;;;17.45;10.13;;;;;;;;;;5016716;28;20014;-88
2022/11/05 09:38:41;;;;;;;19.88;11.05;;;;;;;;;;5036184;28;20101;-87
2022/11/05 09:41:30;;;;;;;17.73;11.07;;;9.10;99.90;;;;;;5062972;23;20107;-86
2022/11/05 09:44:04;;;;;;;16.45;10.18;;;9.10;99.90;;;;;;5022733;28;20036;-84
2022/11/05 09:46:56;;;;;;;17.77;11.70;;;9.00;99.90;;;;;;5022979;28;20041;-84
2022/11/05 09:49:56;;;;;;;21.48;12.10;;;9.00;99.90;;;;;;5033365;28;20028;-87
2022/11/05 09:52:32;;;;;;;22.92;12.52;;;8.90;99.90;;;;;;4969494;28;20092;-85
2022/11/05 09:54:59;;;;;;;20.98;12.40;;;8.90;99.90;;;;;;5031555;28;20033;-88
2022/11/05 09:57:30;;;;;;;19.45;12.70;;;;;;;;;;5042205;28;20108;-86
2022/11/05 10:00:01;;;;;;;24.52;13.32;;;8.80;99.90;;;;;;5042852;28;20435;-86
2022/11/05 10:02:50;;;;;;;20.13;11.38;;;8.80;99.90;;;;;;5032221;28;20094;-87
2022/11/05 10:05:28;;;;;;;21.73;12.15;;;8.80;99.90;;;;;;5045676;28;20035;-85
2022/11/05 10:08:22;;;;;;;22.58;12.02;;;8.80;99.90;;;;;;5027649;28;20044;-87
2022/11/05 10:11:51;;;;;;;22.00;12.15;;;8.90;99.90;;;;;;5035062;28;20037;-88
2022/11/05 10:14:58;;;;;;;21.10;11.85;;;8.90;99.90;;;;;;5003207;28;20066;-85
2022/11/05 10:17:57;;;;;;;23.25;12.20;;;8.80;99.90;;;;;;4983162;28;20682;-86
2022/11/05 10:23:49;;;;;;;19.30;11.80;;;8.80;99.90;;;;;;5043528;28;20240;-86
2022/11/05 10:27:01;;;;;;;22.90;13.70;;;8.80;99.90;;;;;;5040820;28;20029;-85
2022/11/05 10:30:11;;;;;;;19.55;11.77;;;8.80;99.90;;;;;;4995566;28;20062;-88
2022/11/05 10:33:06;;;;;;;24.88;12.70;;;8.90;99.90;;;;;;5023955;28;20045;-85
2022/11/05 10:35:47;;;;;;;22.48;12.77;;;8.90;99.90;;;;;;5012135;28;20049;-87
2022/11/05 10:38:14;;;;;;;22.42;12.05;;;8.90;99.90;;;;;;5014656;28;20030;-88
2022/11/05 10:41:02;;;;;;;21.40;12.40;;;9.00;99.90;;;;;;5004419;28;20095;-86
2022/11/05 10:43:53;;;;;;;21.63;12.68;;;9.00;99.90;;;;;;5006023;28;20030;-85
2022/11/05 10:46:28;;;;;;;;;;;9.10;99.90;;;;;;5016678;28;20037;-84
2022/11/05 10:49:00;;;;;;;18.50;11.30;;;;;;;;;;5042768;28;19905;-83
2022/11/05 10:51:27;;;;;;;23.50;11.13;;;;;;;;;;5041071;28;20033;-86
2022/11/05 10:53:55;;;;;;;18.58;11.18;;;9.10;99.90;;;;;;5042518;28;20130;-85
2022/11/05 10:56:38;;;;;;;17.27;10.88;;;9.10;99.90;;;;;;5042728;28;20449;-86
2022/11/05 10:59:17;;;;;;;14.90;9.27;;;9.10;99.90;;;;;;5041094;28;20036;-85
2022/11/05 11:01:43;;;;;;;19.13;9.95;;;;;;;;;;5039975;28;20029;-89
2022/11/05 11:04:21;;;;;;;14.05;9.27;;;9.10;99.90;;;;;;5056339;28;20030;-86
2022/11/05 11:06:58;;;;;;;17.52;9.40;;;9.20;99.90;;;;;;5038751;28;20026;-87
2022/11/05 11:09:24;;;;;;;20.02;9.85;;;;;;;;;;5036344;28;20029;-84
2022/11/05 11:12:19;;;;;;;20.35;9.88;;;9.20;99.90;;;;;;5042065;28;20140;-84
2022/11/05 11:15:20;;;;;;;16.02;9.15;;;9.40;99.90;;;;;;5040727;28;20342;-85
2022/11/05 11:17:46;;;;;;;19.77;9.25;;;;;;;;;;5038982;28;20083;-86
2022/11/05 11:20:15;;;;;;;15.52;8.90;;;;;;;;;;5047636;28;20021;-83
2022/11/05 11:22:41;;;;;;;15.98;8.52;;;;;;;;;;5049975;28;20026;-87
2022/11/05 11:25:25;;;;;;;13.05;8.05;;;9.40;99.90;;;;;;5048721;28;20021;-87
2022/11/05 11:27:52;;;;;;;16.20;8.40;;;9.50;99.90;;;;;;5050138;28;20032;-86
2022/11/05 11:30:19;;;;;;;16.75;8.90;;;9.40;99.90;;;;;;5046904;28;20037;-88
2022/11/05 11:32:46;;;;;;;16.23;8.88;;;9.40;99.90;;;;;;5040172;28;20022;-86
2022/11/05 11:35:20;;;;;;;14.38;7.70;;;9.40;99.90;;;;;;5046984;28;20021;-87
2022/11/05 11:37:48;;;;;;;14.88;8.07;;;9.40;99.90;;;;;;5033686;28;20033;-84
2022/11/05 11:40:27;;;;;;;15.18;7.80;;;9.40;99.90;;;;;;5041051;28;20478;-86
2022/11/05 11:42:56;;;;;;;11.80;7.50;;;9.40;99.90;;;;;;5050840;28;20017;-85
2022/11/05 11:45:28;;;;;;;16.05;8.18;;;9.40;99.90;;;;;;5040326;28;20029;-83
2022/11/05 11:47:56;;;;;;;13.68;7.63;;;9.50;99.90;;;;;;5040236;28;20025;-86
2022/11/05 11:50:35;;;;;;;15.98;7.25;;;9.60;99.90;;;;;;5039760;28;20040;-83
2022/11/05 11:53:16;;;;;;;12.40;7.47;;;;;;;;;;5042024;28;20030;-83
2022/11/05 11:55:54;;;;;;;13.25;6.85;;;9.60;99.90;;;;;;5039904;28;20026;-87
2022/11/05 11:58:34;;;;;;;17.05;7.47;;;;;;;;;;5045052;28;20075;-81
2022/11/05 12:01:25;;;;;;;10.30;6.35;;;9.60;99.90;;;;;;5037708;28;20029;-89
2022/11/05 12:03:56;;;;;;;14.27;6.32;;;9.50;99.90;;;;;;5039603;28;20034;-84
2022/11/05 12:06:42;;;;;;;12.40;6.47;;;9.50;99.90;;;;;;5040889;28;20025;-85
2022/11/05 12:09:14;;;;;;;11.05;6.50;;;9.60;99.90;;;;;;5039180;28;20120;-85
2022/11/05 12:11:57;;;;;;;11.90;6.30;;;9.60;99.90;;;;;;5033086;28;20021;-84
2022/11/05 12:14:44;;;;;;;10.48;6.25;;;9.60;99.90;;;;;;5020089;28;20038;-85
2022/11/05 12:17:10;;;;;;;14.52;6.50;;;;;;;;;;5020190;28;20084;-79
2022/11/05 12:19:53;;;;;;;13.43;6.88;;;9.70;99.90;;;;;;5036961;28;20030;-80
2022/11/05 12:22:19;;;;;;;12.27;6.43;;;;;;;;;;5049166;28;20026;-86
2022/11/05 12:25:14;;;;;;;16.05;6.95;;;9.70;99.90;;;;;;5051966;28;20040;-84
2022/11/05 12:28:07;;;;;;;11.77;5.90;;;9.70;99.90;;;;;;5032872;28;20026;-87
2022/11/05 12:30:52;;;;;;;12.90;6.10;;;9.70;99.90;;;;;;5033498;28;20100;-85
2022/11/05 12:33:25;;;;;;;12.35;5.95;;;;;;;;;;5048674;28;20044;-84
2022/11/05 12:35:59;;;;;;;14.43;6.47;;;;;;;;;;5046384;28;20038;-86
2022/11/05 12:38:48;;;;;;;15.75;6.55;;;9.80;99.90;;;;;;5053841;28;20042;-84
2022/11/05 12:41:33;;;;;;;14.30;6.30;;;;;;;;;;5046458;28;20045;-85
2022/11/05 12:44:14;;;;;;;13.23;5.82;;;;;;;;;;5038410;28;20497;-84
2022/11/05 12:46:59;;;;;;;10.15;5.43;;;9.90;99.90;;;;;;5053162;28;20029;-85
2022/11/05 12:49:29;;;;;;;13.45;5.55;;;;;;;;;;5029807;28;20025;-81
2022/11/05 12:52:01;;;;;;;11.87;5.73;;;9.90;99.90;;;;;;5033141;28;20398;-83
2022/11/05 12:54:27;;;;;;;11.57;5.30;;;;;;;;;;5035116;28;20820;-83
2022/11/05 12:56:57;;;;;;;11.23;5.15;;;10.00;99.90;;;;;;5038311;28;20029;-84
2022/11/05 12:59:47;;;;;;;10.00;4.80;;;10.10;99.90;;;;;;5037760;28;20022;-84
2022/11/05 13:02:28;;;;;;;8.07;4.22;;;10.30;99.90;;;;;;5035246;28;20272;-84
2022/11/05 13:05:05;;;;;;;8.50;4.18;;;10.40;99.90;;;;;;5033045;28;20060;-84
2022/11/05 13:07:37;;;;;;;7.35;4.72;;;10.50;99.90;;;;;;5037774;28;20041;-87
2022/11/05 13:10:10;;;;;;;12.18;4.70;;;10.60;99.90;;;;;;5037986;28;20037;-86
2022/11/05 13:12:40;;;;;;;11.35;4.50;;;10.70;99.90;;;;;;5037904;28;20026;-83
2022/11/05 13:15:21;;;;;;;14.77;4.30;;;10.80;99.90;;;;;;5034420;28;20493;-84
2022/11/05 13:18:00;;;;;;;18.73;4.53;;;10.90;99.90;;;;;;5032511;28;20053;-83
2022/11/05 13:20:35;;;;;;;10.63;3.70;;;;;;;;;;5017566;28;20362;-88
2022/11/05 13:23:20;;;;;;;11.07;4.50;;;11.00;99.90;;;;;;5019417;28;20116;-84
2022/11/05 13:26:01;;;;;;;7.18;3.53;;;11.00;99.90;;;;;;5037427;28;20024;-81
2022/11/05 13:28:53;;;;;;;10.88;3.97;;;11.10;99.90;;;;;;5029728;28;20042;-87
2022/11/05 13:31:24;;;;;;;6.57;3.33;;;11.20;99.90;;;;;;5010405;28;20140;-86
2022/11/05 13:33:51;;;;;;;6.80;3.28;;;11.10;99.90;;;;;;5035464;28;20029;-86
2022/11/05 13:39:34;;;;;;;9.88;4.07;;;10.80;99.90;;;;;;5040728;28;20032;-85
2022/11/05 13:42:05;;;;;;;;;;;10.90;99.90;;;;;;5038089;28;20032;-86
2022/11/05 13:44:34;;;;;;;7.30;3.78;;;;;;;;;;5065221;28;19959;-86
2022/11/05 13:47:16;;;;;;;10.02;3.80;;;;;;;;;;5057583;28;20503;-85
2022/11/05 13:50:07;;;;;;;9.13;4.18;;;11.20;99.90;;;;;;5040312;28;20045;-85
2022/11/05 13:52:48;;;;;;;11.15;4.00;;;11.20;99.90;;;;;;5039472;28;20097;-88
2022/11/05 13:55:29;;;;;;;8.88;4.03;;;;;;;;;;5046043;28;20045;-83
2022/11/05 13:58:32;;;;;;;7.28;4.03;;;11.10;99.90;;;;;;5049739;28;20038;-84
2022/11/05 14:01:17;;;;;;;8.80;4.25;;;10.90;99.90;;;;;;5042879;28;20104;-86
2022/11/05 14:03:49;;;;;;;9.52;4.38;;;10.90;99.90;;;;;;5063772;28;20030;-85
2022/11/05 14:06:29;;;;;;;9.07;4.18;;;10.80;99.90;;;;;;5053218;28;20021;-84
2022/11/05 14:09:03;;;;;;;10.88;4.05;;;10.70;99.90;;;;;;5048077;28;20022;-85
2022/11/05 14:11:53;;;;;;;12.50;5.40;;;10.60;99.90;;;;;;5052417;28;20509;-85
2022/11/05 14:14:26;;;;;;;7.05;3.75;;;10.60;99.90;;;;;;5039018;28;20029;-86
2022/11/05 14:17:01;;;;;;;7.68;4.20;;;;;;;;;;5041297;28;20033;-83
2022/11/05 14:19:34;;;;;;;9.40;4.20;;;10.50;99.90;;;;;;5058900;28;20030;-86
2022/11/05 14:22:31;;;;;;;7.70;4.47;;;10.40;99.90;;;;;;5032636;28;20101;-85
2022/11/05 14:25:24;;;;;;;10.25;4.47;;;10.40;99.90;;;;;;5045975;28;20552;-85
2022/11/05 14:27:53;;;;;;;9.00;4.15;;;;;;;;;;5042554;28;20030;-88
2022/11/05 14:30:39;;;;;;;8.57;3.78;;;;;;;;;;5042728;28;20085;-85
2022/11/05 14:33:15;;;;;;;11.02;4.35;;;10.30;99.90;;;;;;5051488;28;20018;-86
2022/11/05 14:35:41;;;;;;;9.25;4.13;;;;;;;;;;5048847;28;20033;-84
2022/11/05 14:38:22;;;;;;;9.95;4.20;;;10.40;99.90;;;;;;5037420;28;20686;-82
2022/11/05 14:40:56;;;;;;;11.43;4.78;;;10.40;99.90;;;;;;5040727;28;20034;-86
2022/11/05 14:43:27;;;;;;;7.97;4.35;;;10.40;99.90;;;;;;5040963;28;20085;-86
2022/11/05 14:46:00;;;;;;;13.32;4.97;;;10.40;99.90;;;;;;5048939;28;20056;-87
2022/11/05 14:48:39;;;;;;;10.35;3.80;;;;;;;;;;5035712;28;20053;-87
2022/11/05 14:51:43;;;;;;;9.85;3.97;;;10.50;99.90;;;;;;5042096;28;20092;-85
2022/11/05 14:54:18;;;;;;;12.70;4.35;;;10.50;99.90;;;;;;5051468;28;20060;-84
2022/11/05 14:56:51;;;;;;;8.18;4.07;;;;;;;;;;5047041;28;20548;-87
2022/11/05 14:59:20;;;;;;;9.88;4.18;;;;;;;;;;5033749;28;20052;-85